Time;durP1;ratioP1;P1;durP2;ratioP2;P2;SDS_P1;SDS_P2;PMS_P1;PMS_P2;Temp;Humidity;BMP_temperature;BMP_pressure;BME280_temperature;BME280_humidity;BME280_pressure;Samples;Min_cycle;Max_cycle;Signal;HPM_P1;HPM_P2
2022/11/13 00:00:52;;;;;;;1.00;1.00;;;;;;;;;;5090732;28;20689;-77
2022/11/13 00:03:17;;;;;;;0.90;0.90;;;;;;;;;;5074930;28;20181;-76
2022/11/13 00:05:43;;;;;;;0.90;0.90;;;;;;;;;;5092123;28;20178;-77
2022/11/13 00:08:09;;;;;;;0.90;0.90;;;;;;;;;;5091717;28;20643;-76
2022/11/13 00:10:35;;;;;;;0.87;0.87;;;;;;;;;;5072881;28;20194;-76
2022/11/13 00:13:01;;;;;;;0.90;0.90;;;;;;;;;;5074141;28;20217;-76
2022/11/13 00:15:27;;;;;;;0.80;0.80;;;;;;;;;;5076429;28;20718;-76
2022/11/13 00:17:53;;;;;;;0.90;0.90;;;;;;;;;;5090878;28;20182;-77
2022/11/13 00:20:19;;;;;;;1.00;1.00;;;;;;;;;;5090525;28;20185;-76
2022/11/13 00:22:46;;;;;;;0.90;0.90;;;;;;;;;;5085967;28;20711;-77
2022/11/13 00:25:12;;;;;;;0.90;0.90;;;;;;;;;;5073738;28;20186;-76
2022/11/13 00:27:37;;;;;;;0.70;0.70;;;;;;;;;;5087576;28;20258;-77
2022/11/13 00:30:04;;;;;;;0.90;0.90;;;;;;;;;;5088752;28;20181;-77
2022/11/13 00:32:30;;;;;;;0.90;0.90;;;;;;;;;;5091002;28;20826;-77
2022/11/13 00:34:56;;;;;;;0.90;0.90;;;;;;;;;;5074816;28;20206;-76
2022/11/13 00:37:22;;;;;;;0.90;0.90;;;;;;;;;;5072954;28;20182;-76
2022/11/13 00:39:48;;;;;;;0.90;0.90;;;;;;;;;;5086814;28;20178;-76
2022/11/13 00:42:14;;;;;;;0.90;0.90;;;;;;;;;;5085816;28;20213;-77
2022/11/13 00:44:40;;;;;;;1.00;1.00;;;;;;;;;;5078781;28;20210;-77
2022/11/13 00:47:06;;;;;;;0.90;0.90;;;;;;;;;;5071205;28;20260;-76
2022/11/13 00:49:32;;;;;;;1.00;1.00;;;;;;;;;;5086940;28;20510;-76
2022/11/13 00:51:59;;;;;;;1.33;1.23;;;;;;;;;;5076986;28;20215;-76
2022/11/13 00:54:25;;;;;;;1.40;1.30;;;;;;;;;;5090814;28;20197;-77
2022/11/13 00:56:51;;;;;;;1.03;1.03;;;;;;;;;;5091540;28;20212;-76
2022/11/13 00:59:16;;;;;;;1.10;1.10;;;;;;;;;;5070877;28;20181;-76
2022/11/13 01:01:42;;;;;;;0.90;0.90;;;;;;;;;;5087424;28;20197;-75
2022/11/13 01:04:08;;;;;;;0.90;0.90;;;;;;;;;;5080924;28;20233;-77
2022/11/13 01:06:34;;;;;;;0.90;0.90;;;;;;;;;;5071045;28;20189;-76
2022/11/13 01:09:00;;;;;;;0.87;0.87;;;;;;;;;;5073455;28;20261;-77
2022/11/13 01:11:27;;;;;;;0.90;0.90;;;;;;;;;;5089625;28;20204;-77
2022/11/13 01:13:54;;;;;;;0.90;0.90;;;;;;;;;;5082149;28;20273;-75
2022/11/13 01:16:21;;;;;;;0.90;0.90;;;;;;;;;;5070629;28;20186;-76
2022/11/13 01:18:47;;;;;;;0.97;0.97;;;;;;;;;;5087284;28;20231;-76
2022/11/13 01:21:24;;;;;;;0.80;0.80;;;;;;;;;;5070298;28;20201;-76
2022/11/13 01:23:50;;;;;;;0.70;0.70;;;;;;;;;;5089338;28;20173;-76
2022/11/13 01:26:18;;;;;;;0.83;0.83;;;;;;;;;;5090709;28;20177;-75
2022/11/13 01:28:44;;;;;;;0.90;0.90;;;;;;;;;;5090683;28;20216;-75
2022/11/13 01:31:11;;;;;;;0.80;0.80;;;;;;;;;;5088243;28;20277;-75
2022/11/13 01:33:37;;;;;;;1.00;1.00;;;;;;;;;;5090384;28;20216;-76
2022/11/13 01:36:05;;;;;;;0.90;0.90;;;;;;;;;;5092228;28;20177;-77
2022/11/13 01:38:31;;;;;;;0.90;0.90;;;;;;;;;;5094531;28;20188;-76
2022/11/13 01:40:58;;;;;;;1.00;1.00;;;;;;;;;;5077007;28;20202;-76
2022/11/13 01:43:28;;;;;;;0.90;0.90;;;;;;;;;;5078882;28;20175;-75
2022/11/13 01:45:57;;;;;;;0.90;0.90;;;;;;;;;;5074581;28;20182;-75
2022/11/13 01:48:25;;;;;;;1.00;1.00;;;;;;;;;;5074310;28;20512;-75
2022/11/13 01:50:51;;;;;;;0.80;0.80;;;;;;;;;;5073899;28;20194;-76
2022/11/13 01:53:17;;;;;;;0.80;0.80;;;;;;;;;;5092111;28;20214;-75
2022/11/13 01:55:43;;;;;;;0.83;0.83;;;;;;;;;;5093800;28;20239;-75
2022/11/13 01:58:10;;;;;;;0.90;0.90;;;;;;;;;;5094413;28;20269;-75
2022/11/13 02:00:36;;;;;;;0.90;0.90;;;;;;;;;;5093770;28;20233;-76
2022/11/13 02:03:02;;;;;;;0.87;0.87;;;;;;;;;;5090147;28;20240;-76
2022/11/13 02:05:27;;;;;;;0.80;0.80;;;;;;;;;;5089968;28;20182;-75
2022/11/13 02:07:54;;;;;;;1.00;1.00;;;;;;;;;;5073966;28;20194;-76
2022/11/13 02:10:19;;;;;;;1.00;1.00;;;;;;;;;;5073437;28;20293;-76
2022/11/13 02:12:50;;;;;;;0.90;0.90;;;;;;;;;;5075250;28;20297;-77
2022/11/13 02:15:17;;;;;;;0.93;0.93;;;;;;;;;;5075857;28;20191;-76
2022/11/13 02:17:48;;;;;;;2.67;2.47;;;;;;;;;;5093866;28;20186;-76
2022/11/13 02:20:15;;;;;;;1.00;1.00;;;;;;;;;;5093337;28;20174;-77
2022/11/13 02:22:45;;;;;;;1.10;1.10;;;;;;;;;;5089335;28;20189;-77
2022/11/13 02:25:12;;;;;;;1.70;1.60;;;;;;;;;;5092360;28;20716;-76
2022/11/13 02:27:46;;;;;;;0.83;0.83;;;;;;;;;;5073915;28;20193;-76
2022/11/13 02:30:19;;;;;;;1.87;1.77;;;;;;;;;;5073291;28;20178;-76
2022/11/13 02:32:47;;;;;;;0.90;0.90;;;;;;;;;;5086968;28;20202;-76
2022/11/13 02:35:14;;;;;;;1.40;1.30;;;;;;;;;;5092903;28;20182;-76
2022/11/13 02:37:40;;;;;;;1.30;1.20;;;;;;;;;;5077562;28;20174;-75
2022/11/13 02:40:07;;;;;;;1.50;1.40;;;;;;;;;;5092939;28;20618;-76
2022/11/13 02:42:33;;;;;;;1.57;1.47;;;;;;;;;;5089993;28;20202;-76
2022/11/13 02:44:59;;;;;;;1.30;1.20;;;;;;;;;;5093169;28;20181;-76
2022/11/13 02:47:25;;;;;;;1.17;1.17;;;;;;;;;;5073872;28;20260;-76
2022/11/13 02:49:50;;;;;;;1.27;1.20;;;;;;;;;;5072721;28;20275;-76
2022/11/13 02:52:16;;;;;;;1.40;1.30;;;;;;;;;;5081216;28;20218;-76
2022/11/13 02:54:42;;;;;;;1.50;1.40;;;;;;;;;;5081424;28;20179;-76
2022/11/13 02:57:08;;;;;;;1.40;1.30;;;;;;;;;;5088722;28;20186;-76
2022/11/13 02:59:34;;;;;;;1.50;1.40;;;;;;;;;;5073886;28;20193;-76
2022/11/13 03:02:00;;;;;;;1.13;1.10;;;;;;;;;;5074848;28;20198;-76
2022/11/13 03:04:26;;;;;;;1.10;1.10;;;;;;;;;;5073017;28;20660;-76
2022/11/13 03:06:52;;;;;;;1.00;1.00;;;;;;;;;;5085988;28;20174;-77
2022/11/13 03:09:18;;;;;;;0.93;0.93;;;;;;;;;;5093144;28;20196;-76
2022/11/13 03:11:44;;;;;;;1.30;1.20;;;;;;;;;;5083178;28;20281;-76
2022/11/13 03:14:10;;;;;;;1.00;1.00;;;;;;;;;;5088613;28;20334;-77
2022/11/13 03:16:36;;;;;;;1.00;1.00;;;;;;;;;;5089900;28;20182;-77
2022/11/13 03:19:02;;;;;;;0.90;0.90;;;;;;;;;;5088822;28;20178;-76
2022/11/13 03:21:28;;;;;;;1.00;1.00;;;;;;;;;;5087238;28;20309;-78
2022/11/13 03:23:54;;;;;;;1.00;1.00;;;;;;;;;;5082454;28;20286;-76
2022/11/13 03:26:21;;;;;;;0.90;0.90;;;;;;;;;;5091315;28;20247;-78
2022/11/13 03:28:47;;;;;;;0.87;0.87;;;;;;;;;;5082310;28;20257;-78
2022/11/13 03:31:13;;;;;;;0.83;0.83;;;;;;;;;;5054692;28;20249;-78
2022/11/13 03:33:39;;;;;;;0.83;0.83;;;;;;;;;;5090344;28;20209;-78
2022/11/13 03:36:05;;;;;;;1.00;1.00;;;;;;;;;;5081049;28;20176;-78
2022/11/13 03:38:31;;;;;;;0.90;0.90;;;;;;;;;;5090988;28;20273;-78
2022/11/13 03:40:58;;;;;;;0.87;0.87;;;;;;;;;;5086481;28;20209;-78
2022/11/13 03:43:24;;;;;;;0.90;0.90;;;;;;;;;;5091982;28;20186;-78
2022/11/13 03:45:50;;;;;;;1.00;1.00;;;;;;;;;;5089578;28;20182;-78
2022/11/13 03:48:16;;;;;;;1.23;1.17;;;;;;;;;;5095288;28;20170;-78
2022/11/13 03:50:43;;;;;;;1.07;1.07;;;;;;;;;;5085823;28;20287;-78
2022/11/13 03:53:09;;;;;;;1.00;1.00;;;;;;;;;;5086910;28;20238;-78
2022/11/13 03:55:35;;;;;;;1.27;1.17;;;;;;;;;;5095434;28;20228;-78
2022/11/13 03:58:01;;;;;;;1.30;1.20;;;;;;;;;;5075367;28;20736;-77
2022/11/13 04:00:27;;;;;;;1.10;1.10;;;;;;;;;;5074127;28;20532;-77
2022/11/13 04:02:53;;;;;;;1.00;1.00;;;;;;;;;;5087269;28;20208;-78
2022/11/13 04:05:19;;;;;;;1.10;1.10;;;;;;;;;;5089426;28;20702;-77
2022/11/13 04:07:45;;;;;;;1.00;1.00;;;;;;;;;;5093055;28;20647;-78
2022/11/13 04:10:11;;;;;;;1.37;1.27;;;;;;;;;;5073170;28;20647;-78
2022/11/13 04:12:37;;;;;;;1.10;1.10;;;;;;;;;;5080081;28;20672;-77
2022/11/13 04:15:03;;;;;;;1.00;1.00;;;;;;;;;;5092225;28;20629;-77
2022/11/13 04:17:29;;;;;;;0.90;0.90;;;;;;;;;;5077893;28;20197;-77
2022/11/13 04:19:55;;;;;;;0.90;0.90;;;;;;;;;;5093604;23;20706;-78
2022/11/13 04:22:21;;;;;;;1.10;1.10;;;;;;;;;;5098953;28;20739;-78
2022/11/13 04:24:47;;;;;;;1.03;1.03;;;;;;;;;;5100812;28;20279;-80
2022/11/13 04:27:13;;;;;;;0.97;0.97;;;;;;;;;;5104955;28;20174;-78
2022/11/13 04:29:38;;;;;;;1.00;1.00;;;;;;;;;;5104096;28;20182;-80
2022/11/13 04:32:05;;;;;;;1.00;1.00;;;;;;;;;;5103113;28;20236;-79
2022/11/13 04:34:30;;;;;;;1.00;1.00;;;;;;;;;;5102290;28;20177;-79
2022/11/13 04:36:56;;;;;;;0.93;0.93;;;;;;;;;;5093317;28;20373;-77
2022/11/13 04:39:22;;;;;;;1.10;1.10;;;;;;;;;;5093650;28;20174;-78
2022/11/13 04:44:33;;;;;;;1.00;1.00;;;;;;;;;;5089073;28;20193;-78
2022/11/13 04:46:59;;;;;;;1.30;1.20;;;;;;;;;;5092871;28;20178;-77
2022/11/13 04:49:25;;;;;;;1.10;1.10;;;;;;;;;;5092916;28;20184;-77
2022/11/13 04:51:51;;;;;;;1.30;1.20;;;;;;;;;;5092258;28;20193;-77
2022/11/13 04:54:17;;;;;;;1.40;1.30;;;;;;;;;;5091847;28;20177;-77
2022/11/13 04:56:43;;;;;;;1.00;1.00;;;;;;;;;;5091777;28;20264;-77
2022/11/13 04:59:08;;;;;;;0.90;0.90;;;;;;;;;;5091614;28;20185;-77
2022/11/13 05:01:35;;;;;;;0.90;0.90;;;;;;;;;;5092723;28;20277;-78
2022/11/13 05:04:01;;;;;;;1.07;1.07;;;;;;;;;;5094701;28;20265;-78
2022/11/13 05:06:27;;;;;;;1.10;1.10;;;;;;;;;;5096398;28;20654;-78
2022/11/13 05:08:53;;;;;;;1.00;1.00;;;;;;;;;;5097532;28;20318;-78
2022/11/13 05:11:19;;;;;;;0.90;0.90;;;;;;;;;;5097478;28;20759;-78
2022/11/13 05:13:45;;;;;;;0.83;0.83;;;;;;;;;;5097745;28;20210;-78
2022/11/13 05:16:12;;;;;;;1.00;1.00;;;;;;;;;;5093966;28;20276;-78
2022/11/13 05:18:39;;;;;;;0.90;0.90;;;;;;;;;;5073559;28;20170;-77
2022/11/13 05:21:05;;;;;;;1.00;1.00;;;;;;;;;;5091108;28;20213;-77
2022/11/13 05:23:32;;;;;;;1.20;1.10;;;;;;;;;;5091250;28;20177;-77
2022/11/13 05:26:07;;;;;;;1.37;1.27;;;;;;;;;;5091248;28;20591;-77
2022/11/13 05:28:34;;;;;;;1.90;1.80;;;;;;;;;;5091614;28;20189;-76
2022/11/13 05:31:04;;;;;;;1.90;1.80;;;;;;;;;;5091610;28;20717;-77
2022/11/13 05:33:30;;;;;;;1.27;1.23;;;;;;;;;;5092732;28;20223;-78
2022/11/13 05:36:00;;;;;;;1.63;1.53;;;;;;;;;;5093608;28;20177;-77
2022/11/13 05:38:27;;;;;;;2.47;2.27;;;;;;;;;;5093581;28;20216;-78
2022/11/13 05:40:53;;;;;;;2.13;2.00;;;;;;;;;;5092537;28;20687;-78
2022/11/13 05:43:19;;;;;;;1.43;1.33;;;;;;;;;;5093057;28;20170;-77
2022/11/13 05:45:45;;;;;;;1.57;1.47;;;;;;;;;;5092216;28;20586;-77
2022/11/13 05:48:11;;;;;;;1.93;1.83;;;;;;;;;;5091840;28;20587;-77
2022/11/13 05:50:37;;;;;;;1.80;1.70;;;;;;;;;;5091620;28;20198;-78
2022/11/13 05:53:03;;;;;;;1.50;1.40;;;;;;;;;;5091741;28;20271;-78
2022/11/13 05:55:29;;;;;;;1.80;1.70;;;;;;;;;;5091565;28;20182;-77
2022/11/13 05:57:55;;;;;;;2.43;2.23;;;;;;;;;;5093134;28;20178;-76
2022/11/13 06:00:21;;;;;;;1.70;1.60;;;;;;;;;;5092337;28;20177;-77
2022/11/13 06:02:46;;;;;;;2.40;2.20;;;;;;;;;;5092176;28;20186;-78
2022/11/13 06:05:12;;;;;;;1.97;1.87;;;;;;;;;;5091895;28;20198;-77
2022/11/13 06:07:38;;;;;;;1.83;1.73;;;;;;;;;;5092745;28;20182;-77
2022/11/13 06:10:04;;;;;;;2.23;2.03;;;;;;;;;;5091828;28;20174;-78
2022/11/13 06:12:30;;;;;;;1.40;1.30;;;;;;;;;;5093117;28;20625;-78
2022/11/13 06:14:56;;;;;;;2.10;2.00;;;;;;;;;;5092064;28;20178;-77
2022/11/13 06:17:22;;;;;;;3.17;2.87;;;;;;;;;;5091067;28;20273;-77
2022/11/13 06:19:48;;;;;;;1.97;1.87;;;;;;;;;;5090177;28;20177;-77
2022/11/13 06:22:14;;;;;;;1.97;1.87;;;;;;;;;;5092439;28;20205;-77
2022/11/13 06:24:40;;;;;;;2.10;1.93;;;;;;;;;;5094204;28;20181;-77
2022/11/13 06:27:06;;;;;;;2.03;1.83;;;;;;;;;;5090401;28;20185;-77
2022/11/13 06:29:32;;;;;;;2.57;2.20;;;;;;;;;;5089269;28;20178;-77
2022/11/13 06:31:58;;;;;;;1.20;1.20;;;;;;;;;;5093905;28;20279;-77
2022/11/13 06:34:24;;;;;;;1.30;1.20;;;;;;;;;;5078076;28;20232;-77
2022/11/13 06:36:50;;;;;;;1.33;1.23;;;;;;;;;;5104723;28;20178;-77
2022/11/13 06:39:16;;;;;;;1.17;1.10;;;;;;;;;;5093096;28;20178;-77
2022/11/13 06:41:42;;;;;;;1.50;1.40;;;;;;;;;;5098456;28;20227;-77
2022/11/13 06:44:08;;;;;;;1.90;1.80;;;;;;;;;;5097355;28;20220;-77
2022/11/13 06:46:34;;;;;;;1.73;1.63;;;;;;;;;;5094109;28;20178;-77
2022/11/13 06:49:00;;;;;;;2.00;1.90;;;;;;;;;;5094068;28;20181;-77
2022/11/13 06:51:27;;;;;;;2.20;2.00;;;;;;;;;;5094095;28;20198;-77
2022/11/13 06:53:53;;;;;;;1.87;1.77;;;;;;;;;;5094464;28;20243;-77
2022/11/13 06:56:20;;;;;;;1.40;1.30;;;;;;;;;;5091732;28;20178;-77
2022/11/13 06:58:46;;;;;;;1.40;1.30;;;;;;;;;;5107137;28;20277;-78
2022/11/13 07:01:13;;;;;;;1.70;1.60;;;;;;;;;;5103430;28;20591;-77
2022/11/13 07:03:39;;;;;;;1.80;1.70;;;;;;;;;;5094185;28;20649;-77
2022/11/13 07:06:06;;;;;;;1.15;1.15;;;;;;;;;;5092847;28;21000;-77
2022/11/13 07:08:32;;;;;;;1.90;1.80;;;;;;;;;;5096303;28;20173;-78
2022/11/13 07:10:58;;;;;;;1.10;1.10;;;;;;;;;;5093879;28;20919;-77
2022/11/13 07:13:25;;;;;;;1.90;1.80;;;;;;;;;;5093463;28;20309;-78
2022/11/13 07:15:51;;;;;;;2.23;2.03;;;;;;;;;;5093426;28;20185;-78
2022/11/13 07:18:17;;;;;;;1.50;1.40;;;;;;;;;;5077397;28;20197;-79
2022/11/13 07:20:43;;;;;;;1.50;1.40;;;;;;;;;;5092121;28;20677;-77
2022/11/13 07:23:09;;;;;;;2.30;2.10;;;;;;;;;;5093385;28;20185;-78
2022/11/13 07:25:35;;;;;;;1.50;1.40;;;;;;;;;;5093103;28;20177;-77
2022/11/13 07:28:02;;;;;;;1.67;1.57;;;;;;;;;;5091873;28;20192;-77
2022/11/13 07:30:27;;;;;;;1.63;1.53;;;;;;;;;;5091394;28;20181;-77
2022/11/13 07:32:53;;;;;;;1.70;1.60;;;;;;;;;;5091745;28;20262;-77
2022/11/13 07:35:20;;;;;;;1.60;1.50;;;;;;;;;;5092353;28;20257;-78
2022/11/13 07:37:46;;;;;;;1.10;1.10;;;;;;;;;;5092567;28;20169;-78
2022/11/13 07:40:12;;;;;;;1.60;1.50;;;;;;;;;;5092143;28;20170;-80
2022/11/13 07:42:38;;;;;;;1.70;1.60;;;;;;;;;;5093777;28;20205;-79
2022/11/13 07:45:05;;;;;;;1.67;1.57;;;;;;;;;;5093819;28;20227;-79
2022/11/13 07:47:31;;;;;;;1.10;1.10;;;;;;;;;;5093938;28;20178;-78
2022/11/13 07:49:57;;;;;;;2.30;2.10;;;;;;;;;;5093277;28;20193;-78
2022/11/13 07:52:23;;;;;;;1.70;1.60;;;;;;;;;;5094855;28;20271;-79
2022/11/13 07:54:49;;;;;;;2.10;1.90;;;;;;;;;;5094393;28;20608;-78
2022/11/13 07:57:15;;;;;;;1.50;1.40;;;;;;;;;;5093481;28;20639;-79
2022/11/13 07:59:41;;;;;;;1.53;1.43;;;;;;;;;;5092588;28;20182;-79
2022/11/13 08:02:09;;;;;;;1.47;1.37;;;;;;;;;;5092701;28;20577;-79
2022/11/13 08:04:35;;;;;;;1.70;1.60;;;;;;;;;;5091797;28;20217;-78
2022/11/13 08:07:00;;;;;;;1.63;1.53;;;;;;;;;;5091797;28;20638;-77
2022/11/13 08:09:26;;;;;;;1.30;1.20;;;;;;;;;;5090751;28;20194;-78
2022/11/13 08:11:52;;;;;;;1.77;1.67;;;;;;;;;;5090990;28;20276;-79
2022/11/13 08:14:18;;;;;;;1.43;1.33;;;;;;;;;;5091385;28;20213;-77
2022/11/13 08:16:44;;;;;;;1.50;1.40;;;;;;;;;;5089060;28;20174;-78
2022/11/13 08:19:10;;;;;;;0.90;0.90;;;;;;;;;;5091226;28;20679;-79
2022/11/13 08:21:36;;;;;;;1.60;1.50;;;;;;;;;;5090115;28;20201;-79
2022/11/13 08:24:02;;;;;;;1.40;1.30;;;;;;;;;;5088479;28;20185;-77
2022/11/13 08:26:28;;;;;;;1.80;1.70;;;;;;;;;;5090591;28;20284;-77
2022/11/13 08:28:54;;;;;;;1.50;1.40;;;;;;;;;;5084784;28;20192;-77
2022/11/13 08:31:20;;;;;;;1.27;1.20;;;;;;;;;;5086033;28;20244;-77
2022/11/13 08:33:46;;;;;;;1.40;1.30;;;;;;;;;;5078900;28;20209;-77
2022/11/13 08:36:12;;;;;;;1.00;1.00;;;;;;;;;;5083072;28;20181;-77
2022/11/13 08:38:38;;;;;;;1.43;1.33;;;;;;;;;;5088204;28;20264;-78
2022/11/13 08:41:05;;;;;;;1.40;1.30;;;;;;;;;;5089752;28;20584;-78
2022/11/13 08:43:31;;;;;;;1.40;1.30;;;;;;;;;;5087901;28;20185;-78
2022/11/13 08:45:57;;;;;;;0.90;0.90;;;;;;;;;;5088866;28;20185;-76
2022/11/13 08:48:23;;;;;;;1.30;1.20;;;;;;;;;;5082558;28;20235;-76
2022/11/13 08:50:53;;;;;;;2.10;2.00;;;;;;;;;;5089302;28;20508;-77
2022/11/13 08:53:19;;;;;;;1.47;1.37;;;;;;;;;;5089400;28;20210;-77
2022/11/13 08:55:46;;;;;;;1.40;1.30;;;;;;;;;;5089124;28;20217;-77
2022/11/13 08:58:12;;;;;;;1.90;1.80;;;;;;;;;;5090332;28;20589;-78
2022/11/13 09:00:38;;;;;;;1.60;1.50;;;;;;;;;;5089994;28;20239;-78
2022/11/13 09:03:04;;;;;;;1.10;1.10;;;;;;;;;;5088451;28;20708;-79
2022/11/13 09:05:30;;;;;;;1.00;1.00;;;;;;;;;;5090432;28;20531;-79
2022/11/13 09:07:57;;;;;;;1.60;1.50;;;;;;;;;;5090659;28;20184;-78
2022/11/13 09:10:23;;;;;;;0.93;0.93;;;;;;;;;;5089887;28;20180;-79
2022/11/13 09:12:49;;;;;;;1.10;1.10;;;;;;;;;;5090307;28;20206;-79
2022/11/13 09:15:15;;;;;;;0.90;0.90;;;;;;;;;;5089753;28;20185;-78
2022/11/13 09:17:41;;;;;;;0.83;0.83;;;;;;;;;;5090058;28;20193;-78
2022/11/13 09:20:07;;;;;;;1.10;1.10;;;;;;;;;;5053638;28;1036813;-79
2022/11/13 09:22:34;;;;;;;0.97;0.97;;;;;;;;;;5091874;28;20289;-79
2022/11/13 09:25:00;;;;;;;0.90;0.90;;;;;;;;;;5091381;28;20180;-78
2022/11/13 09:27:26;;;;;;;1.30;1.20;;;;;;;;;;5091296;28;20178;-78
2022/11/13 09:29:51;;;;;;;1.00;1.00;;;;;;;;;;5090930;28;20174;-79
2022/11/13 09:32:17;;;;;;;1.00;1.00;;;;;;;;;;5091451;28;20256;-77
2022/11/13 09:34:43;;;;;;;1.00;1.00;;;;;;;;;;5091763;28;20642;-77
2022/11/13 09:37:09;;;;;;;1.00;1.00;;;;;;;;;;5091375;28;20235;-76
2022/11/13 09:39:35;;;;;;;1.17;1.10;;;;;;;;;;5090231;28;20627;-77
2022/11/13 09:42:13;;;;;;;1.13;1.10;;;;;;;;;;5073120;28;20280;-78
2022/11/13 09:44:48;;;;;;;0.90;0.90;;;;;;;;;;5090772;28;20252;-79
2022/11/13 09:47:29;;;;;;;0.90;0.90;;;;;;;;;;5091143;28;20642;-78
2022/11/13 09:50:07;;;;;;;1.00;1.00;;;;;;;;;;5087963;28;20185;-78
2022/11/13 09:52:37;;;;;;;0.80;0.80;;;;;;;;;;5084975;28;20205;-77
2022/11/13 09:55:03;;;;;;;1.00;1.00;;;;;;;;;;5084041;28;20243;-78
2022/11/13 09:57:40;;;;;;;0.90;0.90;;;;;;;;;;5087852;28;20197;-78
2022/11/13 10:00:11;;;;;;;0.80;0.80;;;;;;;;;;5095678;28;20182;-75
2022/11/13 10:03:03;;;;;;;0.70;0.70;;;;;;;;;;5095439;28;20184;-76
2022/11/13 10:05:44;;;;;;;0.80;0.80;;;;;;;;;;5088759;28;20190;-76
2022/11/13 10:08:16;;;;;;;0.70;0.70;;;;;;;;;;5093141;28;20181;-77
2022/11/13 10:10:50;;;;;;;0.80;0.80;;;;;;;;;;5096613;28;20197;-78
2022/11/13 10:13:36;;;;;;;0.80;0.80;;;;;;;;;;5108356;28;20216;-81
2022/11/13 10:16:05;;;;;;;0.70;0.70;;;;;;;;;;5078813;28;20194;-77
2022/11/13 10:18:34;;;;;;;0.70;0.70;;;;;;;;;;5093279;28;20243;-76
2022/11/13 10:21:08;;;;;;;0.63;0.63;;;;;;;;;;5090688;28;20220;-76
2022/11/13 10:23:37;;;;;;;0.60;0.60;;;6.40;99.90;;;;;;5092846;28;20182;-77
2022/11/13 10:26:12;;;;;;;0.57;0.57;;;;;;;;;;5093492;28;20247;-78
2022/11/13 10:28:39;;;;;;;0.60;0.60;;;;;;;;;;5093809;28;20214;-77
2022/11/13 10:31:05;;;;;;;0.40;0.40;;;;;;;;;;5093884;28;20202;-78
2022/11/13 10:33:31;;;;;;;0.50;0.50;;;;;;;;;;5093744;28;20296;-76
2022/11/13 10:36:16;;;;;;;0.50;0.50;;;;;;;;;;5093172;28;20277;-76
2022/11/13 10:38:49;;;;;;;0.50;0.50;;;;;;;;;;5091813;28;20201;-76
2022/11/13 10:41:16;;;;;;;0.60;0.60;;;;;;;;;;5092859;28;20186;-77
2022/11/13 10:43:55;;;;;;;0.50;0.50;;;;;;;;;;5094026;28;20182;-77
2022/11/13 10:46:23;;;;;;;0.40;0.40;;;;;;;;;;5093442;28;20526;-76
2022/11/13 10:48:49;;;;;;;0.30;0.30;;;;;;;;;;5094971;28;20232;-77
2022/11/13 10:51:21;;;;;;;0.30;0.30;;;;;;;;;;5096005;28;20591;-78
2022/11/13 10:53:47;;;;;;;0.30;0.30;;;;;;;;;;5094292;28;20209;-77
2022/11/13 10:56:26;;;;;;;0.30;0.30;;;;;;;;;;5094352;28;20178;-78
2022/11/13 10:59:01;;;;;;;0.40;0.40;;;;;;;;;;5096170;28;20184;-78
2022/11/13 11:01:27;;;;;;;0.40;0.40;;;;;;;;;;5094286;28;20232;-76
2022/11/13 11:03:52;;;;;;;0.40;0.40;;;10.90;99.90;;;;;;5108065;22;20221;-79
2022/11/13 11:06:18;;;;;;;0.40;0.40;;;19.60;1.00;;;;;;5096831;28;20184;-79
2022/11/13 11:08:44;;;;;;;0.30;0.30;;;;;;;;;;5097988;28;20190;-80
2022/11/13 11:14:20;;;;;;;0.30;0.30;;;;;;;;;;5088868;28;20229;-80
2022/11/13 11:16:47;;;;;;;0.40;0.40;;;;;;;;;;5076384;28;20183;-80
2022/11/13 11:19:15;;;;;;;0.50;0.50;;;;;;;;;;5078207;28;20240;-79
2022/11/13 11:21:42;;;;;;;0.50;0.50;;;;;;;;;;5076210;28;20198;-78
2022/11/13 11:24:23;;;;;;;0.40;0.40;;;19.90;1.00;;;;;;5076321;28;20173;-77
2022/11/13 11:26:53;;;;;;;0.47;0.47;;;;;;;;;;5065595;28;20178;-77
2022/11/13 11:29:28;;;;;;;0.50;0.50;;;;;;;;;;5064239;28;20663;-77
2022/11/13 11:31:56;;;;;;;0.50;0.50;;;;;;;;;;5066095;28;20674;-78
2022/11/13 11:34:22;;;;;;;0.40;0.40;;;;;;;;;;5065142;28;20189;-77
2022/11/13 11:37:06;;;;;;;0.40;0.40;;;;;;;;;;5064401;28;20202;-77
2022/11/13 11:39:40;;;;;;;0.43;0.43;;;;;;;;;;5063502;28;20175;-78
2022/11/13 11:42:12;;;;;;;0.60;0.60;;;;;;;;;;5067415;28;20237;-78
2022/11/13 11:44:45;;;;;;;0.40;0.40;;;;;;;;;;5064741;28;20267;-77
2022/11/13 11:47:14;;;;;;;0.30;0.30;;;;;;;;;;5076562;28;20178;-77
2022/11/13 11:49:41;;;;;;;0.50;0.50;;;;;;;;;;5084036;28;20208;-77
2022/11/13 11:52:22;;;;;;;0.50;0.50;;;;;;;;;;5085927;28;20195;-80
2022/11/13 11:55:04;;;;;;;0.40;0.40;;;;;;;;;;5077075;28;20179;-78
2022/11/13 11:57:38;;;;;;;0.30;0.30;;;;;;;;;;5072288;28;20260;-79
2022/11/13 12:00:06;;;;;;;0.40;0.40;;;;;;;;;;5089763;28;20266;-79
2022/11/13 12:02:50;;;;;;;0.33;0.33;;;;;;;;;;5081872;28;20202;-79
2022/11/13 12:05:21;;;;;;;0.40;0.40;;;;;;;;;;5082051;28;20190;-79
2022/11/13 12:08:02;;;;;;;0.50;0.50;;;;;;;;;;5105255;28;20183;-79
2022/11/13 12:10:39;;;;;;;0.40;0.40;;;;;;;;;;5098518;28;20178;-79
2022/11/13 12:13:13;;;;;;;0.40;0.40;;;;;;;;;;5088885;28;20221;-80
2022/11/13 12:15:42;;;;;;;0.60;0.60;;;;;;;;;;5083306;28;20186;-79
2022/11/13 12:18:14;;;;;;;0.50;0.50;;;;;;;;;;5085447;28;20293;-80
2022/11/13 12:20:43;;;;;;;0.40;0.40;;;;;;;;;;5103204;28;20189;-79
2022/11/13 12:23:29;;;;;;;0.60;0.60;;;;;;;;;;5100556;28;20252;-79
2022/11/13 12:26:21;;;;;;;0.50;0.50;;;21.00;1.00;;;;;;5045634;28;20195;-77
2022/11/13 12:29:08;;;;;;;0.60;0.60;;;21.70;1.00;;;;;;5062002;28;20195;-78
2022/11/13 12:31:47;;;;;;;0.53;0.53;;;21.80;1.00;;;;;;5086555;28;20202;-77
2022/11/13 12:34:16;;;;;;;0.57;0.57;;;22.00;1.00;;;;;;5086827;28;20654;-78
2022/11/13 12:36:42;;;;;;;0.50;0.50;;;22.00;1.00;;;;;;5096294;28;20174;-79
2022/11/13 12:39:29;;;;;;;0.50;0.50;;;;;;;;;;5087268;28;20210;-78
2022/11/13 12:42:02;;;;;;;0.60;0.60;;;;;;;;;;5088679;28;20202;-78
2022/11/13 12:44:29;;;;;;;0.40;0.40;;;21.60;1.00;;;;;;5100153;28;20188;-78
2022/11/13 12:46:58;;;;;;;0.40;0.40;;;20.60;1.00;;;;;;5093115;28;20201;-78
2022/11/13 12:49:29;;;;;;;0.50;0.50;;;20.30;1.00;;;;;;5091506;28;20174;-76
2022/11/13 12:51:56;;;;;;;0.37;0.37;;;20.00;1.00;;;;;;5087095;28;20219;-79
2022/11/13 12:54:40;;;;;;;0.30;0.30;;;19.90;1.00;;;;;;5082479;28;20182;-79
2022/11/13 12:57:11;;;;;;;0.40;0.40;;;19.80;1.00;;;;;;5094848;28;20257;-79
2022/11/13 12:59:47;;;;;;;0.40;0.40;;;19.80;1.00;;;;;;5067368;28;20202;-77
2022/11/13 13:02:13;;;;;;;0.30;0.30;;;;;;;;;;5074880;28;20209;-76
2022/11/13 13:04:45;;;;;;;0.40;0.40;;;;;;;;;;5069098;28;20185;-80
2022/11/13 13:07:17;;;;;;;0.40;0.40;;;;;;;;;;5073086;28;20186;-77
2022/11/13 13:09:51;;;;;;;0.40;0.40;;;;;;;;;;5076148;28;20181;-78
2022/11/13 13:12:35;;;;;;;0.40;0.40;;;;;;;;;;5089197;28;20657;-77
2022/11/13 13:15:11;;;;;;;0.30;0.30;;;;;;;;;;5076734;28;20266;-77
2022/11/13 13:17:37;;;;;;;0.40;0.40;;;;;;;;;;5082139;28;20271;-77
2022/11/13 13:20:03;;;;;;;0.40;0.40;;;;;;;;;;5075626;28;20263;-78
2022/11/13 13:22:33;;;;;;;0.50;0.50;;;;;;;;;;5070925;28;20206;-78
2022/11/13 13:25:00;;;;;;;0.37;0.37;;;;;;;;;;5088284;28;20198;-77
2022/11/13 13:27:32;;;;;;;0.50;0.50;;;;;;;;;;5085497;28;20169;-77
2022/11/13 13:29:58;;;;;;;0.40;0.40;;;;;;;;;;5092444;28;20588;-78
2022/11/13 13:32:37;;;;;;;0.40;0.40;;;;;;;;;;5094538;28;20267;-77
2022/11/13 13:35:09;;;;;;;0.50;0.50;;;;;;;;;;5095198;28;20280;-77
2022/11/13 13:38:11;;;;;;;0.30;0.30;;;19.40;1.00;;;;;;5090591;28;20177;-78
2022/11/13 13:40:55;;;;;;;0.30;0.30;;;17.60;1.00;;;;;;5082103;28;20201;-77
2022/11/13 13:43:45;;;;;;;0.40;0.40;;;17.70;1.00;;;;;;5075273;28;20624;-77
2022/11/13 13:46:23;;;;;;;0.40;0.40;;;17.70;1.00;;;;;;5077856;28;20269;-77
2022/11/13 13:48:52;;;;;;;0.40;0.40;;;;;;;;;;5096743;28;20191;-77
2022/11/13 13:51:30;;;;;;;0.30;0.30;;;17.80;1.00;;;;;;5103208;28;20194;-77
2022/11/13 13:53:58;;;;;;;0.40;0.40;;;18.30;1.00;;;;;;5114915;28;20235;-77
2022/11/13 13:56:24;;;;;;;0.30;0.30;;;18.30;1.00;;;;;;5107372;28;20224;-77
2022/11/13 13:58:51;;;;;;;0.40;0.40;;;18.30;1.00;;;;;;5082378;28;20174;-78
2022/11/13 14:01:32;;;;;;;0.40;0.40;;;18.20;1.00;;;;;;5077604;28;20193;-78
2022/11/13 14:04:24;;;;;;;0.40;0.40;;;18.20;1.00;;;;;;5082062;28;20617;-78
2022/11/13 14:06:55;;;;;;;0.30;0.30;;;18.30;1.00;;;;;;5088945;28;20185;-78
2022/11/13 14:09:24;;;;;;;0.40;0.40;;;18.20;1.00;;;;;;5078605;28;20183;-79
2022/11/13 14:12:16;;;;;;;0.30;0.30;;;18.00;1.00;;;;;;5075844;28;20548;-77
2022/11/13 14:14:42;;;;;;;0.37;0.37;;;;;;;;;;5071504;28;20405;-78
2022/11/13 14:17:09;;;;;;;0.40;0.40;;;17.80;1.00;;;;;;5085346;28;20643;-77
2022/11/13 14:19:35;;;;;;;0.40;0.40;;;17.00;1.00;;;;;;5092430;28;20181;-78
2022/11/13 14:22:05;;;;;;;0.40;0.40;;;16.50;1.00;;;;;;5100311;28;20557;-78
2022/11/13 14:24:36;;;;;;;0.37;0.37;;;16.10;1.00;;;;;;5100163;28;20185;-79
2022/11/13 14:27:05;;;;;;;0.40;0.40;;;15.70;1.00;;;;;;5093692;28;20183;-78
2022/11/13 14:29:38;;;;;;;0.40;0.40;;;15.40;1.00;;;;;;5077411;28;20185;-79
2022/11/13 14:32:19;;;;;;;0.50;0.50;;;15.10;1.00;;;;;;5083434;28;20233;-78
2022/11/13 14:34:46;;;;;;;0.47;0.47;;;14.60;1.00;;;;;;5089188;28;20173;-78
2022/11/13 14:37:34;;;;;;;0.50;0.50;;;14.30;1.00;;;;;;5087920;28;20167;-78
2022/11/13 14:40:12;;;;;;;0.50;0.50;;;14.00;1.00;;;;;;5075580;28;20198;-79
2022/11/13 14:42:45;;;;;;;0.30;0.30;;;13.70;1.00;;;;;;5077206;28;20193;-78